sensor_id;sensor_type;location;lat;lon;timestamp;temperature;humidity
7341;DHT22;6870;50.944;6.932;2023-08-30T00:01:06;24.70;39.70
7341;DHT22;6870;50.944;6.932;2023-08-30T00:03:36;24.60;39.00
7341;DHT22;6870;50.944;6.932;2023-08-30T00:06:05;24.50;39.00
7341;DHT22;6870;50.944;6.932;2023-08-30T00:08:34;24.50;39.80
7341;DHT22;6870;50.944;6.932;2023-08-30T00:11:02;24.50;39.70
7341;DHT22;6870;50.944;6.932;2023-08-30T00:13:32;24.60;39.70
7341;DHT22;6870;50.944;6.932;2023-08-30T00:16:01;24.40;39.80
7341;DHT22;6870;50.944;6.932;2023-08-30T00:18:30;24.50;39.30
7341;DHT22;6870;50.944;6.932;2023-08-30T00:20:59;24.50;39.40
7341;DHT22;6870;50.944;6.932;2023-08-30T00:23:28;24.70;39.90
7341;DHT22;6870;50.944;6.932;2023-08-30T00:25:56;24.40;39.50
7341;DHT22;6870;50.944;6.932;2023-08-30T00:28:24;24.50;39.70
7341;DHT22;6870;50.944;6.932;2023-08-30T00:30:55;24.50;40.30
7341;DHT22;6870;50.944;6.932;2023-08-30T00:33:23;24.60;39.90
7341;DHT22;6870;50.944;6.932;2023-08-30T00:36:00;24.30;40.20
7341;DHT22;6870;50.944;6.932;2023-08-30T00:38:28;24.60;40.70
7341;DHT22;6870;50.944;6.932;2023-08-30T00:40:56;24.40;40.30
7341;DHT22;6870;50.944;6.932;2023-08-30T00:43:24;24.50;40.80
7341;DHT22;6870;50.944;6.932;2023-08-30T00:45:53;24.40;40.10
7341;DHT22;6870;50.944;6.932;2023-08-30T00:48:21;24.50;40.50
7341;DHT22;6870;50.944;6.932;2023-08-30T00:50:49;24.50;40.60
7341;DHT22;6870;50.944;6.932;2023-08-30T00:53:19;24.10;39.80
7341;DHT22;6870;50.944;6.932;2023-08-30T00:55:47;24.40;40.40
7341;DHT22;6870;50.944;6.932;2023-08-30T00:58:16;24.10;40.10
7341;DHT22;6870;50.944;6.932;2023-08-30T01:00:44;24.50;40.60
7341;DHT22;6870;50.944;6.932;2023-08-30T01:03:14;24.40;40.30
7341;DHT22;6870;50.944;6.932;2023-08-30T01:05:43;24.30;40.30
7341;DHT22;6870;50.944;6.932;2023-08-30T01:08:11;24.70;40.70
7341;DHT22;6870;50.944;6.932;2023-08-30T01:10:47;24.70;40.60
7341;DHT22;6870;50.944;6.932;2023-08-30T01:13:21;24.40;40.90
7341;DHT22;6870;50.944;6.932;2023-08-30T01:15:51;24.50;40.70
7341;DHT22;6870;50.944;6.932;2023-08-30T01:18:24;24.50;40.70
7341;DHT22;6870;50.944;6.932;2023-08-30T01:20:55;24.40;40.80
7341;DHT22;6870;50.944;6.932;2023-08-30T01:23:32;24.50;40.60
7341;DHT22;6870;50.944;6.932;2023-08-30T01:26:10;24.40;41.10
7341;DHT22;6870;50.944;6.932;2023-08-30T01:28:42;24.50;40.70
7341;DHT22;6870;50.944;6.932;2023-08-30T01:31:11;24.40;40.60
7341;DHT22;6870;50.944;6.932;2023-08-30T01:33:41;24.60;40.90
7341;DHT22;6870;50.944;6.932;2023-08-30T01:36:10;24.50;41.50
7341;DHT22;6870;50.944;6.932;2023-08-30T01:38:39;24.40;40.90
7341;DHT22;6870;50.944;6.932;2023-08-30T01:41:08;24.50;41.60
7341;DHT22;6870;50.944;6.932;2023-08-30T01:43:36;24.30;40.80
7341;DHT22;6870;50.944;6.932;2023-08-30T01:46:06;24.50;41.30
7341;DHT22;6870;50.944;6.932;2023-08-30T01:48:35;24.50;41.00
7341;DHT22;6870;50.944;6.932;2023-08-30T01:51:04;24.40;41.50
7341;DHT22;6870;50.944;6.932;2023-08-30T01:53:33;24.40;41.50
7341;DHT22;6870;50.944;6.932;2023-08-30T01:56:02;24.30;41.70
7341;DHT22;6870;50.944;6.932;2023-08-30T01:58:30;24.00;40.90
7341;DHT22;6870;50.944;6.932;2023-08-30T02:01:00;24.50;41.70
7341;DHT22;6870;50.944;6.932;2023-08-30T02:03:30;24.40;41.70
7341;DHT22;6870;50.944;6.932;2023-08-30T02:06:02;24.10;41.00
7341;DHT22;6870;50.944;6.932;2023-08-30T02:08:40;24.30;41.70
7341;DHT22;6870;50.944;6.932;2023-08-30T02:11:15;24.10;41.60
7341;DHT22;6870;50.944;6.932;2023-08-30T02:13:46;24.40;41.90
7341;DHT22;6870;50.944;6.932;2023-08-30T02:16:17;24.00;41.50
7341;DHT22;6870;50.944;6.932;2023-08-30T02:18:47;24.10;41.80
7341;DHT22;6870;50.944;6.932;2023-08-30T02:21:17;24.30;41.60
7341;DHT22;6870;50.944;6.932;2023-08-30T02:23:49;24.30;41.90
7341;DHT22;6870;50.944;6.932;2023-08-30T02:26:19;24.50;43.00
7341;DHT22;6870;50.944;6.932;2023-08-30T02:28:48;24.10;42.30
7341;DHT22;6870;50.944;6.932;2023-08-30T02:31:16;24.30;42.40
7341;DHT22;6870;50.944;6.932;2023-08-30T02:33:44;24.10;42.10
7341;DHT22;6870;50.944;6.932;2023-08-30T02:36:13;24.40;42.40
7341;DHT22;6870;50.944;6.932;2023-08-30T02:38:42;24.30;42.50
7341;DHT22;6870;50.944;6.932;2023-08-30T02:41:10;24.50;42.40
7341;DHT22;6870;50.944;6.932;2023-08-30T02:43:39;24.30;42.60
7341;DHT22;6870;50.944;6.932;2023-08-30T02:46:07;24.50;42.70
7341;DHT22;6870;50.944;6.932;2023-08-30T02:48:35;24.40;42.50
7341;DHT22;6870;50.944;6.932;2023-08-30T02:51:04;24.30;42.50
7341;DHT22;6870;50.944;6.932;2023-08-30T02:53:33;24.40;42.80
7341;DHT22;6870;50.944;6.932;2023-08-30T02:56:01;24.20;42.40
7341;DHT22;6870;50.944;6.932;2023-08-30T02:58:30;23.90;42.40
7341;DHT22;6870;50.944;6.932;2023-08-30T03:01:00;24.20;42.50
7341;DHT22;6870;50.944;6.932;2023-08-30T03:03:29;24.20;42.70
7341;DHT22;6870;50.944;6.932;2023-08-30T03:05:58;24.30;42.60
7341;DHT22;6870;50.944;6.932;2023-08-30T03:08:26;24.10;42.20
7341;DHT22;6870;50.944;6.932;2023-08-30T03:10:56;24.00;42.20
7341;DHT22;6870;50.944;6.932;2023-08-30T03:13:24;24.10;43.10
7341;DHT22;6870;50.944;6.932;2023-08-30T03:15:52;24.10;42.80
7341;DHT22;6870;50.944;6.932;2023-08-30T03:18:20;24.10;42.50
7341;DHT22;6870;50.944;6.932;2023-08-30T03:20:49;23.90;43.20
7341;DHT22;6870;50.944;6.932;2023-08-30T03:23:27;24.00;43.40
7341;DHT22;6870;50.944;6.932;2023-08-30T03:25:57;23.90;43.20
7341;DHT22;6870;50.944;6.932;2023-08-30T03:28:26;24.40;42.90
7341;DHT22;6870;50.944;6.932;2023-08-30T03:30:54;24.20;43.50
7341;DHT22;6870;50.944;6.932;2023-08-30T03:33:22;24.30;43.20
7341;DHT22;6870;50.944;6.932;2023-08-30T03:35:50;24.30;43.00
7341;DHT22;6870;50.944;6.932;2023-08-30T03:38:18;24.20;43.20
7341;DHT22;6870;50.944;6.932;2023-08-30T03:40:52;24.10;43.00
7341;DHT22;6870;50.944;6.932;2023-08-30T03:43:22;24.20;43.70
7341;DHT22;6870;50.944;6.932;2023-08-30T03:45:50;24.00;43.10
7341;DHT22;6870;50.944;6.932;2023-08-30T03:48:19;24.30;43.60
7341;DHT22;6870;50.944;6.932;2023-08-30T03:50:47;24.30;44.30
7341;DHT22;6870;50.944;6.932;2023-08-30T03:53:15;24.00;44.70
7341;DHT22;6870;50.944;6.932;2023-08-30T03:55:43;24.30;44.00
7341;DHT22;6870;50.944;6.932;2023-08-30T03:58:12;23.80;43.60
7341;DHT22;6870;50.944;6.932;2023-08-30T04:00:41;24.30;44.10
7341;DHT22;6870;50.944;6.932;2023-08-30T04:03:10;24.20;44.00
7341;DHT22;6870;50.944;6.932;2023-08-30T04:05:38;23.90;43.70
7341;DHT22;6870;50.944;6.932;2023-08-30T04:08:07;24.00;43.10
7341;DHT22;6870;50.944;6.932;2023-08-30T04:10:35;24.20;43.20
7341;DHT22;6870;50.944;6.932;2023-08-30T04:13:04;24.20;43.60
7341;DHT22;6870;50.944;6.932;2023-08-30T04:15:33;23.90;43.50
7341;DHT22;6870;50.944;6.932;2023-08-30T04:18:04;24.30;43.80
7341;DHT22;6870;50.944;6.932;2023-08-30T04:20:34;23.80;43.70
7341;DHT22;6870;50.944;6.932;2023-08-30T04:23:03;23.90;43.20
7341;DHT22;6870;50.944;6.932;2023-08-30T04:25:33;23.90;43.80
7341;DHT22;6870;50.944;6.932;2023-08-30T04:28:02;23.80;43.70
7341;DHT22;6870;50.944;6.932;2023-08-30T04:30:30;24.30;44.00
7341;DHT22;6870;50.944;6.932;2023-08-30T04:32:58;23.90;43.30
7341;DHT22;6870;50.944;6.932;2023-08-30T04:35:31;23.80;43.20
7341;DHT22;6870;50.944;6.932;2023-08-30T04:38:00;23.90;43.20
7341;DHT22;6870;50.944;6.932;2023-08-30T04:40:30;24.10;43.30
7341;DHT22;6870;50.944;6.932;2023-08-30T04:42:59;24.30;43.70
7341;DHT22;6870;50.944;6.932;2023-08-30T04:45:27;24.20;44.00
7341;DHT22;6870;50.944;6.932;2023-08-30T04:47:56;24.10;43.70
7341;DHT22;6870;50.944;6.932;2023-08-30T04:50:25;23.90;43.80
7341;DHT22;6870;50.944;6.932;2023-08-30T04:52:54;23.90;43.70
7341;DHT22;6870;50.944;6.932;2023-08-30T04:55:24;23.90;44.20
7341;DHT22;6870;50.944;6.932;2023-08-30T04:57:52;23.80;44.20
7341;DHT22;6870;50.944;6.932;2023-08-30T05:00:20;24.20;44.50
7341;DHT22;6870;50.944;6.932;2023-08-30T05:02:49;23.70;43.60
7341;DHT22;6870;50.944;6.932;2023-08-30T05:05:17;24.30;43.80
7341;DHT22;6870;50.944;6.932;2023-08-30T05:07:45;24.30;43.70
7341;DHT22;6870;50.944;6.932;2023-08-30T05:10:15;24.20;43.20
7341;DHT22;6870;50.944;6.932;2023-08-30T05:12:43;24.00;42.80
7341;DHT22;6870;50.944;6.932;2023-08-30T05:15:16;23.70;42.50
7341;DHT22;6870;50.944;6.932;2023-08-30T05:17:44;23.80;42.40
7341;DHT22;6870;50.944;6.932;2023-08-30T05:20:13;24.30;42.70
7341;DHT22;6870;50.944;6.932;2023-08-30T05:22:41;23.90;42.20
7341;DHT22;6870;50.944;6.932;2023-08-30T05:25:09;24.00;42.20
7341;DHT22;6870;50.944;6.932;2023-08-30T05:27:38;24.10;42.20
7341;DHT22;6870;50.944;6.932;2023-08-30T05:30:07;23.70;41.60
7341;DHT22;6870;50.944;6.932;2023-08-30T05:32:36;23.80;42.10
7341;DHT22;6870;50.944;6.932;2023-08-30T05:35:05;24.00;41.90
7341;DHT22;6870;50.944;6.932;2023-08-30T05:37:33;23.90;41.50
7341;DHT22;6870;50.944;6.932;2023-08-30T05:40:02;24.10;41.60
7341;DHT22;6870;50.944;6.932;2023-08-30T05:42:30;23.80;41.80
7341;DHT22;6870;50.944;6.932;2023-08-30T05:45:00;23.70;41.20
7341;DHT22;6870;50.944;6.932;2023-08-30T05:47:28;24.00;41.40
7341;DHT22;6870;50.944;6.932;2023-08-30T05:49:57;24.00;41.20
7341;DHT22;6870;50.944;6.932;2023-08-30T05:52:25;23.90;41.50
7341;DHT22;6870;50.944;6.932;2023-08-30T05:54:53;24.20;41.40
7341;DHT22;6870;50.944;6.932;2023-08-30T05:57:22;23.90;41.10
7341;DHT22;6870;50.944;6.932;2023-08-30T05:59:51;23.90;41.40
7341;DHT22;6870;50.944;6.932;2023-08-30T06:02:21;23.70;41.10
7341;DHT22;6870;50.944;6.932;2023-08-30T06:04:49;24.10;41.50
7341;DHT22;6870;50.944;6.932;2023-08-30T06:07:17;24.10;41.10
7341;DHT22;6870;50.944;6.932;2023-08-30T06:09:45;24.10;40.70
7341;DHT22;6870;50.944;6.932;2023-08-30T06:12:13;24.10;41.00
7341;DHT22;6870;50.944;6.932;2023-08-30T06:14:43;23.80;40.60
7341;DHT22;6870;50.944;6.932;2023-08-30T06:17:16;23.90;40.80
7341;DHT22;6870;50.944;6.932;2023-08-30T06:19:46;24.10;40.20
7341;DHT22;6870;50.944;6.932;2023-08-30T06:22:14;24.20;40.70
7341;DHT22;6870;50.944;6.932;2023-08-30T06:24:43;23.90;39.80
7341;DHT22;6870;50.944;6.932;2023-08-30T06:27:11;24.00;40.20
7341;DHT22;6870;50.944;6.932;2023-08-30T06:29:39;23.90;39.40
7341;DHT22;6870;50.944;6.932;2023-08-30T06:32:07;24.10;39.40
7341;DHT22;6870;50.944;6.932;2023-08-30T06:34:35;24.10;39.30
7341;DHT22;6870;50.944;6.932;2023-08-30T06:37:05;24.30;39.70
7341;DHT22;6870;50.944;6.932;2023-08-30T06:39:33;24.20;39.20
7341;DHT22;6870;50.944;6.932;2023-08-30T06:42:03;23.90;39.20
7341;DHT22;6870;50.944;6.932;2023-08-30T06:44:32;24.00;39.20
7341;DHT22;6870;50.944;6.932;2023-08-30T06:47:00;24.30;38.80
7341;DHT22;6870;50.944;6.932;2023-08-30T06:49:29;24.00;38.40
7341;DHT22;6870;50.944;6.932;2023-08-30T06:51:58;24.20;38.50
7341;DHT22;6870;50.944;6.932;2023-08-30T06:54:34;24.10;38.20
7341;DHT22;6870;50.944;6.932;2023-08-30T06:57:03;24.10;38.40
7341;DHT22;6870;50.944;6.932;2023-08-30T06:59:33;24.40;38.30
7341;DHT22;6870;50.944;6.932;2023-08-30T07:02:02;24.40;37.70
7341;DHT22;6870;50.944;6.932;2023-08-30T07:04:30;24.10;37.30
7341;DHT22;6870;50.944;6.932;2023-08-30T07:06:58;24.20;36.50
7341;DHT22;6870;50.944;6.932;2023-08-30T07:09:27;24.40;36.50
7341;DHT22;6870;50.944;6.932;2023-08-30T07:11:58;24.30;36.50
7341;DHT22;6870;50.944;6.932;2023-08-30T07:14:26;24.30;37.10
7341;DHT22;6870;50.944;6.932;2023-08-30T07:16:54;24.20;36.00
7341;DHT22;6870;50.944;6.932;2023-08-30T07:19:22;24.30;35.90
7341;DHT22;6870;50.944;6.932;2023-08-30T07:21:50;24.30;35.80
7341;DHT22;6870;50.944;6.932;2023-08-30T07:24:19;24.00;35.20
7341;DHT22;6870;50.944;6.932;2023-08-30T07:26:49;24.40;35.10
7341;DHT22;6870;50.944;6.932;2023-08-30T07:29:18;24.20;34.70
7341;DHT22;6870;50.944;6.932;2023-08-30T07:31:47;24.30;34.70
7341;DHT22;6870;50.944;6.932;2023-08-30T07:34:18;24.00;34.40
7341;DHT22;6870;50.944;6.932;2023-08-30T07:36:46;24.30;34.20
7341;DHT22;6870;50.944;6.932;2023-08-30T07:39:14;23.90;33.70
7341;DHT22;6870;50.944;6.932;2023-08-30T07:41:42;24.00;33.90
7341;DHT22;6870;50.944;6.932;2023-08-30T07:44:10;24.30;33.60
7341;DHT22;6870;50.944;6.932;2023-08-30T07:46:40;23.90;32.90
7341;DHT22;6870;50.944;6.932;2023-08-30T07:49:08;23.80;32.40
7341;DHT22;6870;50.944;6.932;2023-08-30T07:51:36;23.90;30.70
7341;DHT22;6870;50.944;6.932;2023-08-30T07:54:05;23.90;29.50
7341;DHT22;6870;50.944;6.932;2023-08-30T07:56:33;23.90;30.50
7341;DHT22;6870;50.944;6.932;2023-08-30T07:59:01;23.90;31.20
7341;DHT22;6870;50.944;6.932;2023-08-30T08:01:29;23.90;28.20
7341;DHT22;6870;50.944;6.932;2023-08-30T08:03:59;23.90;28.80
7341;DHT22;6870;50.944;6.932;2023-08-30T08:06:33;23.90;29.40
7341;DHT22;6870;50.944;6.932;2023-08-30T08:09:04;24.20;28.60
7341;DHT22;6870;50.944;6.932;2023-08-30T08:11:34;23.90;28.40
7341;DHT22;6870;50.944;6.932;2023-08-30T08:14:02;24.00;29.10
7341;DHT22;6870;50.944;6.932;2023-08-30T08:16:31;23.90;27.90
7341;DHT22;6870;50.944;6.932;2023-08-30T08:19:03;24.10;28.00
7341;DHT22;6870;50.944;6.932;2023-08-30T08:21:33;23.90;27.90
7341;DHT22;6870;50.944;6.932;2023-08-30T08:24:01;23.90;27.00
7341;DHT22;6870;50.944;6.932;2023-08-30T08:26:30;24.30;27.30
7341;DHT22;6870;50.944;6.932;2023-08-30T08:28:58;23.90;26.90
7341;DHT22;6870;50.944;6.932;2023-08-30T08:31:26;23.80;26.60
7341;DHT22;6870;50.944;6.932;2023-08-30T08:34:07;23.90;26.50
7341;DHT22;6870;50.944;6.932;2023-08-30T08:36:37;24.30;26.60
7341;DHT22;6870;50.944;6.932;2023-08-30T08:39:06;24.30;26.20
7341;DHT22;6870;50.944;6.932;2023-08-30T08:41:38;24.40;26.40
7341;DHT22;6870;50.944;6.932;2023-08-30T08:44:08;24.30;25.60
7341;DHT22;6870;50.944;6.932;2023-08-30T08:46:38;24.40;26.20
7341;DHT22;6870;50.944;6.932;2023-08-30T08:49:12;24.30;26.20
7341;DHT22;6870;50.944;6.932;2023-08-30T08:51:42;24.40;25.90
7341;DHT22;6870;50.944;6.932;2023-08-30T08:54:12;24.40;24.70
7341;DHT22;6870;50.944;6.932;2023-08-30T08:56:40;24.00;25.00
7341;DHT22;6870;50.944;6.932;2023-08-30T08:59:09;24.30;24.70
7341;DHT22;6870;50.944;6.932;2023-08-30T09:01:38;24.20;24.40
7341;DHT22;6870;50.944;6.932;2023-08-30T09:04:10;24.30;24.20
7341;DHT22;6870;50.944;6.932;2023-08-30T09:06:39;24.30;24.10
7341;DHT22;6870;50.944;6.932;2023-08-30T09:09:08;24.40;24.10
7341;DHT22;6870;50.944;6.932;2023-08-30T09:11:36;24.50;24.10
7341;DHT22;6870;50.944;6.932;2023-08-30T09:14:17;24.50;23.90
7341;DHT22;6870;50.944;6.932;2023-08-30T09:16:55;24.30;23.60
7341;DHT22;6870;50.944;6.932;2023-08-30T09:19:25;24.30;23.70
7341;DHT22;6870;50.944;6.932;2023-08-30T09:21:53;24.20;23.30
7341;DHT22;6870;50.944;6.932;2023-08-30T09:24:22;24.40;23.40
7341;DHT22;6870;50.944;6.932;2023-08-30T09:26:52;24.50;23.80
7341;DHT22;6870;50.944;6.932;2023-08-30T09:29:22;24.40;23.90
7341;DHT22;6870;50.944;6.932;2023-08-30T09:31:51;24.40;24.40
7341;DHT22;6870;50.944;6.932;2023-08-30T09:34:22;24.50;24.50
7341;DHT22;6870;50.944;6.932;2023-08-30T09:36:54;24.40;24.50
7341;DHT22;6870;50.944;6.932;2023-08-30T09:39:22;24.50;24.50
7341;DHT22;6870;50.944;6.932;2023-08-30T09:41:51;24.30;24.50
7341;DHT22;6870;50.944;6.932;2023-08-30T09:44:20;24.50;24.70
7341;DHT22;6870;50.944;6.932;2023-08-30T09:46:50;24.50;24.90
7341;DHT22;6870;50.944;6.932;2023-08-30T09:49:21;24.50;25.00
7341;DHT22;6870;50.944;6.932;2023-08-30T09:51:53;24.50;24.60
7341;DHT22;6870;50.944;6.932;2023-08-30T09:54:23;24.50;25.10
7341;DHT22;6870;50.944;6.932;2023-08-30T09:56:57;24.50;25.20
7341;DHT22;6870;50.944;6.932;2023-08-30T09:59:28;24.70;25.00
7341;DHT22;6870;50.944;6.932;2023-08-30T10:01:57;24.60;24.70
7341;DHT22;6870;50.944;6.932;2023-08-30T10:04:28;24.30;25.30
7341;DHT22;6870;50.944;6.932;2023-08-30T10:06:58;24.50;25.00
7341;DHT22;6870;50.944;6.932;2023-08-30T10:09:28;24.30;25.10
7341;DHT22;6870;50.944;6.932;2023-08-30T10:11:58;24.50;25.40
7341;DHT22;6870;50.944;6.932;2023-08-30T10:14:28;24.10;25.20
7341;DHT22;6870;50.944;6.932;2023-08-30T10:17:01;24.10;24.40
7341;DHT22;6870;50.944;6.932;2023-08-30T10:19:31;24.10;24.40
7341;DHT22;6870;50.944;6.932;2023-08-30T10:22:03;24.30;24.80
7341;DHT22;6870;50.944;6.932;2023-08-30T10:24:36;24.40;25.90
7341;DHT22;6870;50.944;6.932;2023-08-30T10:27:28;24.00;25.10
7341;DHT22;6870;50.944;6.932;2023-08-30T10:29:59;24.00;25.80
7341;DHT22;6870;50.944;6.932;2023-08-30T10:32:29;24.30;26.20
7341;DHT22;6870;50.944;6.932;2023-08-30T10:35:01;24.40;25.50
7341;DHT22;6870;50.944;6.932;2023-08-30T10:37:31;24.20;26.20
7341;DHT22;6870;50.944;6.932;2023-08-30T10:40:03;24.30;25.70
7341;DHT22;6870;50.944;6.932;2023-08-30T10:42:33;24.50;26.00
7341;DHT22;6870;50.944;6.932;2023-08-30T10:45:03;24.40;26.10
7341;DHT22;6870;50.944;6.932;2023-08-30T10:47:37;24.30;26.40
7341;DHT22;6870;50.944;6.932;2023-08-30T10:50:08;24.50;25.90
7341;DHT22;6870;50.944;6.932;2023-08-30T10:52:39;24.40;26.40
7341;DHT22;6870;50.944;6.932;2023-08-30T10:55:08;24.40;26.20
7341;DHT22;6870;50.944;6.932;2023-08-30T10:57:37;24.30;26.30
7341;DHT22;6870;50.944;6.932;2023-08-30T11:00:11;24.40;26.90
7341;DHT22;6870;50.944;6.932;2023-08-30T11:02:44;24.50;26.70
7341;DHT22;6870;50.944;6.932;2023-08-30T11:05:15;24.60;26.40
7341;DHT22;6870;50.944;6.932;2023-08-30T11:07:45;24.40;26.70
7341;DHT22;6870;50.944;6.932;2023-08-30T11:10:15;24.70;26.90
7341;DHT22;6870;50.944;6.932;2023-08-30T11:12:45;24.80;26.40
7341;DHT22;6870;50.944;6.932;2023-08-30T11:15:15;24.70;26.80
7341;DHT22;6870;50.944;6.932;2023-08-30T11:17:43;24.80;26.50
7341;DHT22;6870;50.944;6.932;2023-08-30T11:20:14;24.80;26.40
7341;DHT22;6870;50.944;6.932;2023-08-30T11:22:48;24.80;26.70
7341;DHT22;6870;50.944;6.932;2023-08-30T11:25:17;24.50;26.90
7341;DHT22;6870;50.944;6.932;2023-08-30T11:27:45;25.10;27.00
7341;DHT22;6870;50.944;6.932;2023-08-30T11:30:14;24.50;26.60
7341;DHT22;6870;50.944;6.932;2023-08-30T11:32:42;24.70;26.80
7341;DHT22;6870;50.944;6.932;2023-08-30T11:35:11;24.80;27.50
7341;DHT22;6870;50.944;6.932;2023-08-30T11:37:40;24.80;27.20
7341;DHT22;6870;50.944;6.932;2023-08-30T11:40:11;25.00;27.20
7341;DHT22;6870;50.944;6.932;2023-08-30T11:42:40;24.80;27.60
7341;DHT22;6870;50.944;6.932;2023-08-30T11:45:09;24.90;27.80
7341;DHT22;6870;50.944;6.932;2023-08-30T11:47:38;24.80;27.80
7341;DHT22;6870;50.944;6.932;2023-08-30T11:50:09;25.10;27.80
7341;DHT22;6870;50.944;6.932;2023-08-30T11:52:39;24.80;27.40
7341;DHT22;6870;50.944;6.932;2023-08-30T11:55:09;25.10;27.70
7341;DHT22;6870;50.944;6.932;2023-08-30T11:57:39;24.80;27.70
7341;DHT22;6870;50.944;6.932;2023-08-30T12:00:08;24.80;27.60
7341;DHT22;6870;50.944;6.932;2023-08-30T12:02:38;24.80;28.10
7341;DHT22;6870;50.944;6.932;2023-08-30T12:05:10;24.80;27.90
7341;DHT22;6870;50.944;6.932;2023-08-30T12:07:39;24.80;28.00
7341;DHT22;6870;50.944;6.932;2023-08-30T12:10:08;25.00;28.10
7341;DHT22;6870;50.944;6.932;2023-08-30T12:12:43;24.70;28.00
7341;DHT22;6870;50.944;6.932;2023-08-30T12:15:13;24.90;28.10
7341;DHT22;6870;50.944;6.932;2023-08-30T12:17:42;24.80;28.10
7341;DHT22;6870;50.944;6.932;2023-08-30T12:20:17;24.70;27.70
7341;DHT22;6870;50.944;6.932;2023-08-30T12:22:47;24.90;28.20
7341;DHT22;6870;50.944;6.932;2023-08-30T12:25:19;25.10;28.10
7341;DHT22;6870;50.944;6.932;2023-08-30T12:27:49;25.00;28.30
7341;DHT22;6870;50.944;6.932;2023-08-30T12:30:18;25.10;28.40
7341;DHT22;6870;50.944;6.932;2023-08-30T12:32:47;25.30;28.20
7341;DHT22;6870;50.944;6.932;2023-08-30T12:35:16;25.30;28.20
7341;DHT22;6870;50.944;6.932;2023-08-30T12:37:44;24.80;28.30
7341;DHT22;6870;50.944;6.932;2023-08-30T12:40:12;24.80;28.40
7341;DHT22;6870;50.944;6.932;2023-08-30T12:42:42;25.10;28.90
7341;DHT22;6870;50.944;6.932;2023-08-30T12:45:10;25.10;28.80
7341;DHT22;6870;50.944;6.932;2023-08-30T12:47:38;25.10;28.70
7341;DHT22;6870;50.944;6.932;2023-08-30T12:50:07;24.80;28.70
7341;DHT22;6870;50.944;6.932;2023-08-30T12:52:36;24.80;28.60
7341;DHT22;6870;50.944;6.932;2023-08-30T12:55:05;24.70;28.80
7341;DHT22;6870;50.944;6.932;2023-08-30T12:57:33;24.90;29.00
7341;DHT22;6870;50.944;6.932;2023-08-30T13:00:04;25.10;29.30
7341;DHT22;6870;50.944;6.932;2023-08-30T13:02:33;24.70;29.10
7341;DHT22;6870;50.944;6.932;2023-08-30T13:05:01;24.90;29.40
7341;DHT22;6870;50.944;6.932;2023-08-30T13:07:29;25.00;29.40
7341;DHT22;6870;50.944;6.932;2023-08-30T13:10:00;24.80;29.30
7341;DHT22;6870;50.944;6.932;2023-08-30T13:12:29;24.50;29.20
7341;DHT22;6870;50.944;6.932;2023-08-30T13:14:57;24.60;29.70
7341;DHT22;6870;50.944;6.932;2023-08-30T13:17:27;24.50;29.60
7341;DHT22;6870;50.944;6.932;2023-08-30T13:19:55;24.50;29.50
7341;DHT22;6870;50.944;6.932;2023-08-30T13:22:24;24.60;29.70
7341;DHT22;6870;50.944;6.932;2023-08-30T13:24:53;24.80;30.00
7341;DHT22;6870;50.944;6.932;2023-08-30T13:27:21;24.60;29.80
7341;DHT22;6870;50.944;6.932;2023-08-30T13:29:50;24.30;29.80
7341;DHT22;6870;50.944;6.932;2023-08-30T13:32:18;24.50;30.00
7341;DHT22;6870;50.944;6.932;2023-08-30T13:34:49;24.60;30.50
7341;DHT22;6870;50.944;6.932;2023-08-30T13:37:17;24.60;30.60
7341;DHT22;6870;50.944;6.932;2023-08-30T13:39:45;24.80;30.60
7341;DHT22;6870;50.944;6.932;2023-08-30T13:42:14;24.90;30.80
7341;DHT22;6870;50.944;6.932;2023-08-30T13:44:42;24.60;30.90
7341;DHT22;6870;50.944;6.932;2023-08-30T13:47:13;24.70;30.90
7341;DHT22;6870;50.944;6.932;2023-08-30T13:49:43;24.70;30.50
7341;DHT22;6870;50.944;6.932;2023-08-30T13:52:12;24.70;30.60
7341;DHT22;6870;50.944;6.932;2023-08-30T13:54:41;24.60;30.70
7341;DHT22;6870;50.944;6.932;2023-08-30T13:57:09;24.90;30.90
7341;DHT22;6870;50.944;6.932;2023-08-30T13:59:37;24.80;30.90
7341;DHT22;6870;50.944;6.932;2023-08-30T14:02:06;24.80;30.70
7341;DHT22;6870;50.944;6.932;2023-08-30T14:04:34;24.80;30.80
7341;DHT22;6870;50.944;6.932;2023-08-30T14:07:04;24.60;30.20
7341;DHT22;6870;50.944;6.932;2023-08-30T14:09:34;24.60;30.30
7341;DHT22;6870;50.944;6.932;2023-08-30T14:12:02;25.00;31.00
7341;DHT22;6870;50.944;6.932;2023-08-30T14:14:37;24.80;31.10
7341;DHT22;6870;50.944;6.932;2023-08-30T14:17:05;25.00;31.40
7341;DHT22;6870;50.944;6.932;2023-08-30T14:19:34;24.60;30.40
7341;DHT22;6870;50.944;6.932;2023-08-30T14:22:03;24.80;30.40
7341;DHT22;6870;50.944;6.932;2023-08-30T14:24:34;24.80;30.50
7341;DHT22;6870;50.944;6.932;2023-08-30T14:27:17;24.80;30.70
7341;DHT22;6870;50.944;6.932;2023-08-30T14:29:45;24.70;30.50
7341;DHT22;6870;50.944;6.932;2023-08-30T14:32:14;24.70;30.50
7341;DHT22;6870;50.944;6.932;2023-08-30T14:34:42;24.80;30.70
7341;DHT22;6870;50.944;6.932;2023-08-30T14:37:10;24.50;30.50
7341;DHT22;6870;50.944;6.932;2023-08-30T14:39:39;24.50;31.40
7341;DHT22;6870;50.944;6.932;2023-08-30T14:42:08;24.60;30.80
7341;DHT22;6870;50.944;6.932;2023-08-30T14:44:36;24.50;30.90
7341;DHT22;6870;50.944;6.932;2023-08-30T14:47:05;24.50;31.00
7341;DHT22;6870;50.944;6.932;2023-08-30T14:49:33;24.40;31.40
7341;DHT22;6870;50.944;6.932;2023-08-30T14:52:01;24.50;31.30
7341;DHT22;6870;50.944;6.932;2023-08-30T14:54:30;24.50;31.00
7341;DHT22;6870;50.944;6.932;2023-08-30T14:56:59;24.50;31.20
7341;DHT22;6870;50.944;6.932;2023-08-30T14:59:28;24.30;30.90
7341;DHT22;6870;50.944;6.932;2023-08-30T15:01:56;24.60;31.30
7341;DHT22;6870;50.944;6.932;2023-08-30T15:04:24;24.50;31.30
7341;DHT22;6870;50.944;6.932;2023-08-30T15:06:53;24.50;31.50
7341;DHT22;6870;50.944;6.932;2023-08-30T15:09:21;24.60;31.40
7341;DHT22;6870;50.944;6.932;2023-08-30T15:11:49;24.50;31.50
7341;DHT22;6870;50.944;6.932;2023-08-30T15:14:18;24.80;31.90
7341;DHT22;6870;50.944;6.932;2023-08-30T15:16:47;24.50;31.70
7341;DHT22;6870;50.944;6.932;2023-08-30T15:19:15;24.60;31.90
7341;DHT22;6870;50.944;6.932;2023-08-30T15:21:43;24.50;32.00
7341;DHT22;6870;50.944;6.932;2023-08-30T15:24:12;24.50;31.60
7341;DHT22;6870;50.944;6.932;2023-08-30T15:26:43;24.80;31.80
7341;DHT22;6870;50.944;6.932;2023-08-30T15:29:11;24.50;31.80
7341;DHT22;6870;50.944;6.932;2023-08-30T15:31:41;24.50;32.10
7341;DHT22;6870;50.944;6.932;2023-08-30T15:34:10;24.50;32.30
7341;DHT22;6870;50.944;6.932;2023-08-30T15:36:38;24.50;32.60
7341;DHT22;6870;50.944;6.932;2023-08-30T15:39:06;24.70;33.00
7341;DHT22;6870;50.944;6.932;2023-08-30T15:41:35;24.40;32.50
7341;DHT22;6870;50.944;6.932;2023-08-30T15:44:04;24.50;32.60
7341;DHT22;6870;50.944;6.932;2023-08-30T15:46:32;24.60;33.20
7341;DHT22;6870;50.944;6.932;2023-08-30T15:49:02;24.50;32.80
7341;DHT22;6870;50.944;6.932;2023-08-30T15:51:30;24.60;33.50
7341;DHT22;6870;50.944;6.932;2023-08-30T15:53:58;24.80;33.60
7341;DHT22;6870;50.944;6.932;2023-08-30T15:56:27;24.70;33.30
7341;DHT22;6870;50.944;6.932;2023-08-30T15:58:55;25.00;33.50
7341;DHT22;6870;50.944;6.932;2023-08-30T16:01:23;24.70;33.20
7341;DHT22;6870;50.944;6.932;2023-08-30T16:03:52;24.80;32.80
7341;DHT22;6870;50.944;6.932;2023-08-30T16:06:21;24.80;33.00
7341;DHT22;6870;50.944;6.932;2023-08-30T16:08:49;24.80;32.90
7341;DHT22;6870;50.944;6.932;2023-08-30T16:11:17;24.80;32.50
7341;DHT22;6870;50.944;6.932;2023-08-30T16:13:45;24.70;33.10
7341;DHT22;6870;50.944;6.932;2023-08-30T16:16:13;25.20;33.80